Time;durP1;ratioP1;P1;durP2;ratioP2;P2;SDS_P1;SDS_P2;PMS_P1;PMS_P2;Temp;Humidity;BMP_temperature;BMP_pressure;BME280_temperature;BME280_humidity;BME280_pressure;Samples;Min_cycle;Max_cycle;Signal;HPM_P1;HPM_P2
2022/08/31 00:06:00;;;;;;;;;;;;;;;;;;5042656;28;1224;-74
2022/08/31 00:08:26;;;;;;;;;;;;;;;;;;5046406;28;1637;-74
2022/08/31 00:10:53;;;;;;;;;;;;;;;;;;5046447;28;1898;-74
2022/08/31 00:13:19;;;;;;;;;;;;;;;;;;5043248;28;1538;-74
2022/08/31 00:15:45;;;;;;;;;;;;;;;;;;5050928;28;1420;-74
2022/08/31 00:18:10;;;;;;;;;;;;;;;;;;5045197;28;1322;-74
2022/08/31 00:20:35;;;;;;;;;;;;;;;;;;5042782;28;1159;-74
2022/08/31 00:23:05;;;;;;;;;;;;;;;;;;5041773;28;1579;-74
2022/08/31 00:25:31;;;;;;;;;;;;;;;;;;5047918;28;1259;-74
2022/08/31 00:27:56;;;;;;;;;;;;;;;;;;5042786;28;799;-74
2022/08/31 00:30:22;;;;;;;;;;;;;;;;;;5041730;28;1617;-73
2022/08/31 00:32:47;;;;;;;;;;;;;;;;;;5042365;28;1894;-74
2022/08/31 00:35:12;;;;;;;;;;;;;;;;;;5041786;28;1319;-74
2022/08/31 00:37:37;;;;;;;;;;;;;;;;;;5042039;28;1673;-74
2022/08/31 00:40:04;;;;;;;;;;;;;;;;;;5043150;28;1394;-74
2022/08/31 00:42:29;;;;;;;;;;;;;;;;;;5042312;28;1154;-74
2022/08/31 00:44:54;;;;;;;;;;;;;;;;;;5041779;28;1575;-75
2022/08/31 00:47:19;;;;;;;;;;;;;;;;;;5048237;28;1317;-74
2022/08/31 00:49:48;;;;;;;;;;;;;;;;;;5042036;28;1064;-74
2022/08/31 00:52:16;;;;;;;;;;;;;;;;;;5042452;28;1953;-75
2022/08/31 00:54:43;;;;;;;;;;;;;;;;;;5046316;28;1817;-75
2022/08/31 00:57:09;;;;;;;;;;;;;;;;;;5042139;28;1200;-75
2022/08/31 00:59:35;;;;;;;;;;;;;;;;;;5042058;28;993;-74
2022/08/31 01:02:01;;;;;;;;;;;;;;;;;;5047733;28;1658;-74
2022/08/31 01:04:26;;;;;;;;;;;;;;;;;;5031482;28;1251;-73
2022/08/31 01:06:52;;;;;;;;;;;;;;;;;;5040736;28;1635;-75
2022/08/31 01:09:18;;;;;;;;;;;;;;;;;;5035194;28;1305;-75
2022/08/31 01:11:43;;;;;;;;;;;;;;;;;;5041862;28;1882;-75
2022/08/31 01:14:09;;;;;;;;;;;;;;;;;;5042015;28;1555;-74
2022/08/31 01:16:40;;;;;;;;;;;;;;;;;;5040137;28;1269;-74
2022/08/31 01:19:10;;;;;;;;;;;;;;;;;;5031943;28;1391;-74
2022/08/31 01:21:42;;;;;;;;;;;;;;;;;;5040647;28;898;-74
2022/08/31 01:24:08;;;;;;;;;;;;;;;;;;5044328;28;1610;-73
2022/08/31 01:26:33;;;;;;;;;;;;;;;;;;5041038;28;1227;-72
2022/08/31 01:29:01;;;;;;;;;;;;;;;;;;5023799;28;1049;-72
2022/08/31 01:31:39;;;;;;;;;;;;;;;;;;5046958;28;1890;-72
2022/08/31 01:34:04;;;;;;;;;;;;;;;;;;5041297;28;1222;-72
2022/08/31 01:36:30;;;;;;;;;;;;;;;;;;5023090;28;1433;-72
2022/08/31 01:38:55;;;;;;;;;;;;;;;;;;5041737;28;1587;-73
2022/08/31 01:41:21;;;;;;;;;;;;;;;;;;5041824;28;1159;-73
2022/08/31 01:43:46;;;;;;;;;;;;;;;;;;5041503;28;930;-73
2022/08/31 01:46:12;;;;;;;;;;;;;;;;;;5045878;28;1638;-73
2022/08/31 01:48:38;;;;;;;;;;;;;;;;;;5040270;28;1245;-74
2022/08/31 01:51:03;;;;;;;;;;;;;;;;;;5029261;28;1893;-74
2022/08/31 01:53:30;;;;;;;;;;;;;;;;;;5030977;28;1258;-74
2022/08/31 01:55:55;;;;;;;;;;;;;;;;;;5047413;28;1598;-73
2022/08/31 01:58:20;;;;;;;;;;;;;;;;;;5040653;28;1198;-73
2022/08/31 02:00:45;;;;;;;;;;;;;;;;;;5044970;28;1570;-74
2022/08/31 02:03:11;;;;;;;;;;;;;;;;;;5042733;28;1092;-73
2022/08/31 02:05:37;;;;;;;;;;;;;;;;;;5040523;28;1291;-73
2022/08/31 02:08:03;;;;;;;;;;;;;;;;;;5022398;28;1697;-73
2022/08/31 02:10:28;;;;;;;;;;;;;;;;;;5043757;28;1230;-73
2022/08/31 02:12:53;;;;;;;;;;;;;;;;;;5043093;28;1898;-75
2022/08/31 02:15:18;;;;;;;;;;;;;;;;;;5040192;28;1397;-74
2022/08/31 02:17:44;;;;;;;;;;;;;;;;;;5046379;28;1123;-74
2022/08/31 02:20:10;;;;;;;;;;;;;;;;;;5040900;28;1139;-75
2022/08/31 02:22:36;;;;;;;;;;;;;;;;;;5041018;28;819;-73
2022/08/31 02:25:01;;;;;;;;;;;;;;;;;;5039236;28;1753;-73
2022/08/31 02:27:26;;;;;;;;;;;;;;;;;;5033192;28;1105;-73
2022/08/31 02:29:51;;;;;;;;;;;;;;;;;;5040746;28;807;-72
2022/08/31 02:32:16;;;;;;;;;;;;;;;;;;5040150;28;1977;-72
2022/08/31 02:34:42;;;;;;;;;;;;;;;;;;5043469;28;1381;-73
2022/08/31 02:37:08;;;;;;;;;;;;;;;;;;5044331;28;862;-73
2022/08/31 02:39:33;;;;;;;;;;;;;;;;;;5026239;28;899;-73
2022/08/31 02:41:58;;;;;;;;;;;;;;;;;;5045212;28;1685;-73
2022/08/31 02:44:23;;;;;;;;;;;;;;;;;;5024032;28;1204;-73
2022/08/31 02:46:49;;;;;;;;;;;;;;;;;;5044282;28;1579;-73
2022/08/31 02:49:14;;;;;;;;;;;;;;;;;;5043991;28;1183;-73
2022/08/31 02:51:40;;;;;;;;;;;;;;;;;;5044073;28;1977;-73
2022/08/31 02:54:05;;;;;;;;;;;;;;;;;;5044638;28;1416;-73
2022/08/31 02:56:30;;;;;;;;;;;;;;;;;;5043418;28;1224;-73
2022/08/31 02:58:56;;;;;;;;;;;;;;;;;;5048409;28;1544;-73
2022/08/31 03:01:21;;;;;;;;;;;;;;;;;;5042519;28;1396;-74
2022/08/31 03:03:47;;;;;;;;;;;;;;;;;;5043460;28;1408;-72
2022/08/31 03:06:13;;;;;;;;;;;;;;;;;;5042631;28;1231;-72
2022/08/31 03:08:38;;;;;;;;;;;;;;;;;;5043910;28;905;-72
2022/08/31 03:11:03;;;;;;;;;;;;;;;;;;5048348;28;1983;-73
2022/08/31 03:13:28;;;;;;;;;;;;;;;;;;5043951;28;1183;-73
2022/08/31 03:15:54;;;;;;;;;;;;;;;;;;5042244;28;1559;-73
2022/08/31 03:18:19;;;;;;;;;;;;;;;;;;5033311;28;1140;-73
2022/08/31 03:20:44;;;;;;;;;;;;;;;;;;5043664;28;882;-72
2022/08/31 03:23:11;;;;;;;;;;;;;;;;;;5043650;28;800;-73
2022/08/31 03:25:36;;;;;;;;;;;;;;;;;;5048079;28;1531;-70
2022/08/31 03:28:01;;;;;;;;;;;;;;;;;;5042573;28;1278;-70
2022/08/31 03:30:26;;;;;;;;;;;;;;;;;;5044514;28;1447;-70
2022/08/31 03:32:52;;;;;;;;;;;;;;;;;;5047541;28;1894;-70
2022/08/31 03:35:18;;;;;;;;;;;;;;;;;;5042692;28;1342;-70
2022/08/31 03:37:43;;;;;;;;;;;;;;;;;;5043396;28;807;-73
2022/08/31 03:40:09;;;;;;;;;;;;;;;;;;5046440;28;1643;-73
2022/08/31 03:42:34;;;;;;;;;;;;;;;;;;5043292;28;1069;-73
2022/08/31 03:45:00;;;;;;;;;;;;;;;;;;5024498;28;1673;-74
2022/08/31 03:47:26;;;;;;;;;;;;;;;;;;5048580;28;1599;-74
2022/08/31 03:49:51;;;;;;;;;;;;;;;;;;5043190;28;1061;-74
2022/08/31 03:52:16;;;;;;;;;;;;;;;;;;5043150;28;1989;-72
2022/08/31 03:54:42;;;;;;;;;;;;;;;;;;5041439;28;1428;-73
2022/08/31 03:57:08;;;;;;;;;;;;;;;;;;5040861;28;1085;-72
2022/08/31 03:59:33;;;;;;;;;;;;;;;;;;5038531;28;1547;-73
2022/08/31 04:01:58;;;;;;;;;;;;;;;;;;5037726;28;1311;-72
2022/08/31 04:04:26;;;;;;;;;;;;;;;;;;5041325;28;1325;-72
2022/08/31 04:06:51;;;;;;;;;;;;;;;;;;5024053;28;1287;-71
2022/08/31 04:09:16;;;;;;;;;;;;;;;;;;5035914;28;1231;-71
2022/08/31 04:11:42;;;;;;;;;;;;;;;;;;5042692;28;1969;-72
2022/08/31 04:14:07;;;;;;;;;;;;;;;;;;5041772;28;1271;-73
2022/08/31 04:16:33;;;;;;;;;;;;;;;;;;5046739;28;1633;-73
2022/08/31 04:18:58;;;;;;;;;;;;;;;;;;5033066;28;1204;-72
2022/08/31 04:21:24;;;;;;;;;;;;;;;;;;5042737;28;958;-72
2022/08/31 04:23:50;;;;;;;;;;;;;;;;;;5042775;28;848;-73
2022/08/31 04:26:26;;;;;;;;;;;;;;;;;;5041001;28;1579;-74
2022/08/31 04:28:52;;;;;;;;;;;;;;;;;;5042772;28;1116;-71
2022/08/31 04:31:18;;;;;;;;;;;;;;;;;;5047870;28;1893;-71
2022/08/31 04:33:43;;;;;;;;;;;;;;;;;;5042420;28;1132;-71
2022/08/31 04:36:10;;;;;;;;;;;;;;;;;;5041756;28;1157;-71
2022/08/31 04:38:36;;;;;;;;;;;;;;;;;;5041625;28;1587;-72
2022/08/31 04:41:05;;;;;;;;;;;;;;;;;;5041795;28;1328;-72
2022/08/31 04:43:30;;;;;;;;;;;;;;;;;;5043610;28;1277;-73
2022/08/31 04:45:56;;;;;;;;;;;;;;;;;;5032910;28;1279;-73
2022/08/31 04:48:21;;;;;;;;;;;;;;;;;;5041698;28;1342;-72
2022/08/31 04:50:49;;;;;;;;;;;;;;;;;;5030352;28;1674;-73
2022/08/31 04:53:14;;;;;;;;;;;;;;;;;;5049131;28;1886;-72
2022/08/31 04:55:40;;;;;;;;;;;;;;;;;;5038712;28;1329;-71
2022/08/31 04:58:05;;;;;;;;;;;;;;;;;;5042053;28;1128;-69
2022/08/31 05:00:30;;;;;;;;;;;;;;;;;;5043539;28;1277;-69
2022/08/31 05:02:56;;;;;;;;;;;;;;;;;;5045784;28;1223;-69
2022/08/31 05:05:21;;;;;;;;;;;;;;;;;;5040625;28;1356;-69
2022/08/31 05:07:46;;;;;;;;;;;;;;;;;;5037709;28;1411;-70
2022/08/31 05:10:11;;;;;;;;;;;;;;;;;;5037667;28;1555;-70
2022/08/31 05:12:36;;;;;;;;;;;;;;;;;;5022134;28;1961;-71
2022/08/31 05:15:02;;;;;;;;;;;;;;;;;;5029135;28;1561;-71
2022/08/31 05:17:27;;;;;;;;;;;;;;;;;;5041064;28;1411;-71
2022/08/31 05:19:52;;;;;;;;;;;;;;;;;;5041316;28;1463;-71
2022/08/31 05:22:17;;;;;;;;;;;;;;;;;;5041704;28;1187;-70
2022/08/31 05:24:46;;;;;;;;;;;;;;;;;;5039949;28;1433;-71
2022/08/31 05:27:12;;;;;;;;;;;;;;;;;;5024083;28;1136;-71
2022/08/31 05:29:37;;;;;;;;;;;;;;;;;;5039775;28;1523;-71
2022/08/31 05:32:02;;;;;;;;;;;;;;;;;;5041329;28;1977;-70
2022/08/31 05:34:27;;;;;;;;;;;;;;;;;;5040638;28;1247;-70
2022/08/31 05:36:53;;;;;;;;;;;;;;;;;;5041514;28;1136;-70
2022/08/31 05:39:19;;;;;;;;;;;;;;;;;;5041490;28;800;-70
2022/08/31 05:41:45;;;;;;;;;;;;;;;;;;5023392;28;1593;-70
2022/08/31 05:44:10;;;;;;;;;;;;;;;;;;5041473;28;817;-70
2022/08/31 05:46:36;;;;;;;;;;;;;;;;;;5040753;28;1263;-70
2022/08/31 05:49:02;;;;;;;;;;;;;;;;;;5044461;28;1558;-70
2022/08/31 05:51:27;;;;;;;;;;;;;;;;;;5051126;28;1963;-69
2022/08/31 05:53:52;;;;;;;;;;;;;;;;;;5046351;28;1231;-69
2022/08/31 05:56:19;;;;;;;;;;;;;;;;;;5044706;28;1409;-71
2022/08/31 05:58:46;;;;;;;;;;;;;;;;;;5035848;28;1200;-70
2022/08/31 06:01:18;;;;;;;;;;;;;;;;;;5059962;28;1325;-70
2022/08/31 06:03:44;;;;;;;;;;;;;;;;;;5039847;28;1579;-69
2022/08/31 06:06:10;;;;;;;;;;;;;;;;;;5040537;28;1228;-70
2022/08/31 06:08:35;;;;;;;;;;;;;;;;;;5041104;28;1689;-71
2022/08/31 06:11:01;;;;;;;;;;;;;;;;;;5033451;28;1922;-69
2022/08/31 06:13:26;;;;;;;;;;;;;;;;;;5040912;28;1587;-71
2022/08/31 06:15:52;;;;;;;;;;;;;;;;;;5039913;28;1294;-69
2022/08/31 06:18:19;;;;;;;;;;;;;;;;;;5046919;28;1331;-70
2022/08/31 06:20:45;;;;;;;;;;;;;;;;;;5038632;28;1562;-68
2022/08/31 06:23:10;;;;;;;;;;;;;;;;;;5043003;28;1473;-69
2022/08/31 06:25:35;;;;;;;;;;;;;;;;;;5031005;28;1520;-69
2022/08/31 06:28:01;;;;;;;;;;;;;;;;;;5051449;28;1215;-69
2022/08/31 06:30:26;;;;;;;;;;;;;;;;;;5048547;28;1314;-68
2022/08/31 06:32:53;;;;;;;;;;;;;;;;;;5049411;28;1906;-69
2022/08/31 06:35:18;;;;;;;;;;;;;;;;;;5049766;28;1356;-68
2022/08/31 06:37:44;;;;;;;;;;;;;;;;;;5051862;28;1306;-69
2022/08/31 06:40:09;;;;;;;;;;;;;;;;;;5047782;28;1295;-69
2022/08/31 06:42:34;;;;;;;;;;;;;;;;;;5047050;28;1339;-68
2022/08/31 06:45:00;;;;;;;;;;;;;;;;;;5049550;28;1434;-69
2022/08/31 06:47:25;;;;;;;;;;;;;;;;;;5049836;28;1490;-68
2022/08/31 06:49:51;;;;;;;;;;;;;;;;;;5049852;28;1288;-68
2022/08/31 06:52:16;;;;;;;;;;;;;;;;;;5047591;28;1898;-69
2022/08/31 06:54:42;;;;;;;;;;;;;;;;;;5045175;28;1322;-70
2022/08/31 06:57:07;;;;;;;;;;;;;;;;;;5045461;28;1456;-69
2022/08/31 06:59:32;;;;;;;;;;;;;;;;;;5043249;28;1756;-67
2022/08/31 07:01:58;;;;;;;;;;;;;;;;;;5045491;28;1301;-68
2022/08/31 07:04:25;;;;;;;;;;;;;;;;;;5046957;28;1351;-68
2022/08/31 07:06:50;;;;;;;;;;;;;;;;;;5048768;28;1288;-70
2022/08/31 07:09:16;;;;;;;;;;;;;;;;;;5049268;28;1338;-67
2022/08/31 07:11:42;;;;;;;;;;;;;;;;;;5042210;28;2044;-68
2022/08/31 07:14:07;;;;;;;;;;;;;;;;;;5028143;28;1295;-68
2022/08/31 07:16:33;;;;;;;;;;;;;;;;;;5048356;28;1290;-68
2022/08/31 07:19:00;;;;;;;;;;;;;;;;;;5046342;28;1242;-66
2022/08/31 07:21:30;;;;;;;;;;;;;;;;;;5053378;28;1323;-66
2022/08/31 07:23:56;;;;;;;;;;;;;;;;;;5049278;28;1346;-67
2022/08/31 07:26:24;;;;;;;;;;;;;;;;;;5054985;28;1299;-68
2022/08/31 07:28:51;;;;;;;;;;;;;;;;;;5048864;28;1354;-67
2022/08/31 07:31:18;;;;;;;;;;;;;;;;;;5047280;28;1886;-68
2022/08/31 07:33:44;;;;;;;;;;;;;;;;;;5053002;28;1318;-68
2022/08/31 07:36:12;;;;;;;;;;;;;;;;;;5048825;28;1316;-69
2022/08/31 07:44:08;;;;;;;;;;;;;;;;;;5051696;28;1235;-68
2022/08/31 07:46:34;;;;;;;;;;;;;;;;;;5049155;28;1346;-67
2022/08/31 07:49:00;;;;;;;;;;;;;;;;;;5055344;28;1277;-68
2022/08/31 07:51:25;;;;;;;;;;;;;;;;;;5049583;28;1890;-68
2022/08/31 07:53:52;;;;;;;;;;;;;;;;;;5051102;28;1242;-67
2022/08/31 07:56:17;;;;;;;;;;;;;;;;;;5046221;28;1240;-68
2022/08/31 07:58:44;;;;;;;;;;;;;;;;;;5051202;28;1310;-67
2022/08/31 08:01:09;;;;;;;;;;;;;;;;;;5049971;28;1434;-68
2022/08/31 08:03:34;;;;;;;;;;;;;;;;;;5045234;28;1355;-68
2022/08/31 08:06:00;;;;;;;;;;;;;;;;;;5049610;28;1371;-68
2022/08/31 08:08:25;;;;;;;;;;;;;;;;;;5048017;28;1328;-68
2022/08/31 08:10:50;;;;;;;;;;;;;;;;;;5048269;28;1172;-68
2022/08/31 08:13:18;;;;;;;;;;;;;;;;;;5035036;28;1955;-68
2022/08/31 08:15:44;;;;;;;;;;;;;;;;;;5052458;28;1434;-68
2022/08/31 08:18:11;;;;;;;;;;;;;;;;;;5050239;28;1297;-68
2022/08/31 08:20:36;;;;;;;;;;;;;;;;;;5049567;28;1377;-67
2022/08/31 08:23:01;;;;;;;;;;;;;;;;;;5048195;28;1368;-68
2022/08/31 08:25:26;;;;;;;;;;;;;;;;;;5048768;28;1383;-69
2022/08/31 08:27:53;;;;;;;;;;;;;;;;;;5048812;28;1435;-67
2022/08/31 08:30:18;;;;;;;;;;;;;;;;;;5046725;28;1422;-67
2022/08/31 08:32:43;;;;;;;;;;;;;;;;;;5049620;28;1910;-68
2022/08/31 08:35:09;;;;;;;;;;;;;;;;;;5023175;28;1561;-67
2022/08/31 08:37:36;;;;;;;;;;;;;;;;;;5053782;28;1400;-67
2022/08/31 08:40:04;;;;;;;;;;;;;;;;;;5051294;28;1290;-67
2022/08/31 08:42:29;;;;;;;;;;;;;;;;;;5051593;28;1254;-67
2022/08/31 08:44:55;;;;;;;;;;;;;;;;;;5046256;28;1408;-68
2022/08/31 08:47:23;;;;;;;;;;;;;;;;;;5053509;28;1241;-67
2022/08/31 08:49:52;;;;;;;;;;;;;;;;;;5043957;28;1402;-67
2022/08/31 08:52:20;;;;;;;;;;;;;;;;;;5046443;28;1890;-67
2022/08/31 08:54:46;;;;;;;;;;;;;;;;;;5050809;28;1239;-67
2022/08/31 08:57:13;;;;;;;;;;;;;;;;;;5052949;28;1318;-68
2022/08/31 08:59:58;;;;;;;;;;;;;;;;;;5053707;28;1371;-66
2022/08/31 09:02:28;;;;;;;;;;;;;;;;;;5026220;28;1499;-69
2022/08/31 09:04:58;;;;;;;;;;;;;;;;;;5047887;28;1582;-67
2022/08/31 09:07:43;;;;;;;;;;;;;;;;;;5049263;28;1409;-68
2022/08/31 09:10:13;;;;;;;;;;;;;;;;;;5047257;28;1355;-67
2022/08/31 09:12:45;;;;;;;;;;;;;;;;;;5052916;28;1956;-67
2022/08/31 09:15:35;;;;;;;;;;;;;;;;;;5045032;28;1401;-67
2022/08/31 09:18:15;;;;;;;;;;;;;;;;;;5046698;28;1436;-68
2022/08/31 09:20:40;;;;;;;;;;;;;;;;;;5040721;28;1535;-70
2022/08/31 09:23:06;;;;;;;;;;;;;;;;;;5055901;28;1302;-70
2022/08/31 09:25:51;;;;;;;;;;;;;;;;;;5051920;28;1358;-70
2022/08/31 09:28:17;;;;;;;;;;;;;;;;;;5053794;28;1278;-70
2022/08/31 09:30:43;;;;;;;;;;;;;;;;;;5042803;28;1394;-70
2022/08/31 09:33:15;;;;;;;;;;;;;;;;;;5045180;28;1894;-70
2022/08/31 09:35:41;;;;;;;;;;;;;;;;;;5048835;28;1298;-70
2022/08/31 09:38:10;;;;;;;;;;;;;;;;;;5046896;28;1130;-70
2022/08/31 09:40:35;;;;;;;;;;;;;;;;;;5048523;28;1551;-70
2022/08/31 09:43:26;;;;;;;;;;;;;;;;;;5046637;28;1279;-70
2022/08/31 09:45:59;;;;;;;;;;;;;;;;;;5038524;28;1377;-70
2022/08/31 09:48:38;;;;;;;;;;;;;;;;;;5032210;28;1413;-70
2022/08/31 09:51:05;;;;;;;;;;;;;;;;;;5043640;28;1302;-70
2022/08/31 09:56:22;;;;;;;;;;;;;;;;;;5046004;28;1354;-71
2022/08/31 09:59:00;;;;;;;;;;;;;;;;;;5047385;28;1240;-70
2022/08/31 10:01:37;;;;;;;;;;;;;;;;;;5044992;28;1381;-70
2022/08/31 10:04:18;;;;;;;;;;;;;;;;;;5048056;28;1360;-70
2022/08/31 10:06:49;;;;;;;;;;;;;;;;;;5045017;28;1290;-70
2022/08/31 10:09:19;;;;;;;;;;;;;;;;;;5045223;28;1437;-71
2022/08/31 10:11:46;;;;;;;;;;;;;;;;;;5046096;28;1894;-71
2022/08/31 10:14:23;;;;;;;;;;;;;;;;;;5048069;28;1286;-71
2022/08/31 10:16:54;;;;;;;;;;;;;;;;;;5046210;28;1491;-71
2022/08/31 10:19:19;;;;;;;;;;;;;;;;;;5047928;28;1317;-70
2022/08/31 10:21:53;;;;;;;;;;;;;;;;;;5049537;28;1382;-69
2022/08/31 10:24:32;;;;;;;;;;;;;;;;;;5042423;28;1283;-70
2022/08/31 10:27:13;;;;;;;;;;;;;;;;;;5049641;28;1228;-70
2022/08/31 10:29:45;;;;;;;;;;;;;;;;;;5046442;28;1668;-70
2022/08/31 10:32:22;;;;;;;;;;;;;;;;;;5044548;28;2039;-70
2022/08/31 10:35:04;;;;;;;;;;;;;;;;;;5033751;28;1275;-68
2022/08/31 10:37:37;;;;;;;;;;;;;;;;;;5041680;28;1290;-67
2022/08/31 10:40:08;;;;;;;;;;;;;;;;;;5040602;28;1334;-66
2022/08/31 10:42:37;;;;;;;;;;;;;;;;;;5037831;28;1417;-66
2022/08/31 10:45:16;;;;;;;;;;;;;;;;;;5038550;28;1301;-67
2022/08/31 10:47:43;;;;;;;;;;;;;;;;;;5038454;28;1727;-67
2022/08/31 10:50:11;;;;;;;;;;;;;;;;;;5009734;28;1316;-66
2022/08/31 10:52:42;;;;;;;;;;;;;;;;;;5030235;28;1965;-65
2022/08/31 10:55:32;;;;;;;;;;;;;;;;;;5041724;28;1255;-66
2022/08/31 10:57:57;;;;;;;;;;;;;;;;;;5021951;28;1338;-66
2022/08/31 11:03:12;;;;;;;;;;;;;;;;;;5039948;28;1382;-66
2022/08/31 11:05:46;;;;;;;;;;;;;;;;;;5041987;28;1243;-66
2022/08/31 11:08:23;;;;;;;;;;;;;;;;;;5039588;28;1770;-66
2022/08/31 11:10:50;;;;;;;;;;;;;;;;;;5022051;28;1306;-66
2022/08/31 11:13:30;;;;;;;;;;;;;;;;;;5036072;28;1957;-66
2022/08/31 11:15:57;;;;;;;;;;;;;;;;;;5040044;28;1766;-67
2022/08/31 11:18:38;;;;;;;;;;;;;;;;;;5051055;28;1947;-66
2022/08/31 11:21:22;;;;;;;;;;;;;;;;;;5046187;28;1239;-67
2022/08/31 11:23:47;;;;;;;;;;;;;;;;;;5053043;28;1298;-67
2022/08/31 11:26:27;;;;;;;;;;;;;;;;;;5046440;28;1377;-66
2022/08/31 11:28:59;;;;;;;;;;;;;;;;;;5036595;28;1420;-67
2022/08/31 11:31:26;;;;;;;;;;;;;;;;;;5052170;28;1894;-67
2022/08/31 11:33:55;;;;;;;;;;;;;;;;;;5048315;28;1314;-67
2022/08/31 11:36:40;;;;;;;;;;;;;;;;;;5031236;28;1639;-68
2022/08/31 11:39:05;;;;;;;;;;;;;;;;;;5037871;28;1771;-67
2022/08/31 11:41:47;;;;;;;;;;;;;;;;;;5050053;28;1497;-66
2022/08/31 11:44:38;;;;;;;;;;;;;;;;;;5054193;28;1194;-73
2022/08/31 11:47:03;;;;;;;;;;;;;;;;;;5007773;28;1665;-66
2022/08/31 11:49:49;;;;;;;;;;;;;;;;;;5045596;28;1605;-71
2022/08/31 11:52:23;;;;;;;;;;;;;;;;;;5045787;28;1906;-70
2022/08/31 11:54:49;;;;;;;;;;;;;;;;;;5046919;28;1435;-71
2022/08/31 11:57:17;;;;;;;;;;;;;;;;;;5033978;28;1312;-71
2022/08/31 11:59:44;;;;;;;;;;;;;;;;;;5043644;28;1548;-71
2022/08/31 12:02:19;;;;;;;;;;;;;;;;;;5041907;28;1430;-68
2022/08/31 12:04:46;;;;;;;;;;;;;;;;;;5043940;28;1434;-69
2022/08/31 12:07:13;;;;;;;;;;;;;;;;;;5042605;28;1410;-68
2022/08/31 12:09:39;;;;;;;;;;;;;;;;;;5054248;28;1422;-68
2022/08/31 12:12:26;;;;;;;;;;;;;;;;;;5050328;28;1959;-69
2022/08/31 12:15:07;;;;;;;;;;;;;;;;;;5041908;28;1910;-71
2022/08/31 12:17:35;;;;;;;;;;;;;;;;;;5045841;28;1654;-69
2022/08/31 12:20:07;;;;;;;;;;;;;;;;;;5047212;28;1394;-68
2022/08/31 12:25:35;;;;;;;;;;;;;;;;;;5041642;28;1712;-69
2022/08/31 12:28:04;;;;;;;;;;;;;;;;;;5043839;28;1628;-69
2022/08/31 12:30:29;;;;;;;;;;;;;;;;;;5037823;28;1878;-69
2022/08/31 12:32:57;;;;;;;;;;;;;;;;;;5033974;28;1890;-69
2022/08/31 12:35:30;;;;;;;;;;;;;;;;;;5042909;28;1416;-70
2022/08/31 12:38:06;;;;;;;;;;;;;;;;;;5029745;28;1482;-71
2022/08/31 12:40:40;;;;;;;;;;;;;;;;;;5041037;28;1482;-70
2022/08/31 12:43:12;;;;;;;;;;;;;;;;;;5044320;28;1729;-71
2022/08/31 12:45:40;;;;;;;;;;;;;;;;;;5043078;28;1454;-68
2022/08/31 12:48:13;;;;;;;;;;;;;;;;;;5047893;28;1289;-68
2022/08/31 12:50:43;;;;;;;;;;;;;;;;;;5047976;28;1408;-68
2022/08/31 12:53:20;;;;;;;;;;;;;;;;;;5042078;28;1902;-68
2022/08/31 12:55:48;;;;;;;;;;;;;;;;;;5032220;28;1346;-68
2022/08/31 12:58:32;;;;;;;;;;;;;;;;;;5037694;28;1609;-69
2022/08/31 13:01:06;;;;;;;;;;;;;;;;;;5032455;28;1350;-67
2022/08/31 13:03:31;;;;;;;;;;;;;;;;;;5049471;28;1334;-66
2022/08/31 13:06:12;;;;;;;;;;;;;;;;;;5050275;28;1273;-66
2022/08/31 13:08:37;;;;;;;;;;;;;;;;;;5049129;28;1232;-66
2022/08/31 13:11:21;;;;;;;;;;;;;;;;;;5047894;28;1285;-67
2022/08/31 13:13:47;;;;;;;;;;;;;;;;;;5047180;28;1361;-66
2022/08/31 13:16:12;;;;;;;;;;;;;;;;;;5046812;28;1481;-65
2022/08/31 13:18:37;;;;;;;;;;;;;;;;;;5047354;28;1354;-65
2022/08/31 13:21:06;;;;;;;;;;;;;;;;;;5049158;28;1350;-67
2022/08/31 13:23:33;;;;;;;;;;;;;;;;;;5033755;28;1290;-66
2022/08/31 13:26:03;;;;;;;;;;;;;;;;;;5045400;28;1341;-65
2022/08/31 13:28:29;;;;;;;;;;;;;;;;;;5050060;28;1302;-66
2022/08/31 13:31:02;;;;;;;;;;;;;;;;;;5032179;28;1408;-66
2022/08/31 13:33:32;;;;;;;;;;;;;;;;;;5024056;28;1977;-66
2022/08/31 13:36:06;;;;;;;;;;;;;;;;;;5049999;28;1334;-65
2022/08/31 13:38:41;;;;;;;;;;;;;;;;;;5052288;28;1325;-66
2022/08/31 13:41:26;;;;;;;;;;;;;;;;;;5048383;28;1335;-66
2022/08/31 13:43:57;;;;;;;;;;;;;;;;;;5044440;28;1341;-65
2022/08/31 13:46:24;;;;;;;;;;;;;;;;;;5041904;28;1457;-66
2022/08/31 13:48:52;;;;;;;;;;;;;;;;;;5047886;28;1477;-67
2022/08/31 13:51:18;;;;;;;;;;;;;;;;;;5049015;28;1894;-66
2022/08/31 13:53:45;;;;;;;;;;;;;;;;;;5038734;28;1447;-65
2022/08/31 13:59:16;;;;;;;;;;;;;;;;;;5049528;28;1457;-66
2022/08/31 14:01:46;;;;;;;;;;;;;;;;;;5036829;28;1497;-66
2022/08/31 14:04:34;;;;;;;;;;;;;;;;;;5028176;28;1983;-66
2022/08/31 14:07:00;;;;;;;;;;;;;;;;;;5042272;28;1597;-64
2022/08/31 14:09:26;;;;;;;;;;;;;;;;;;5051784;28;1475;-64
2022/08/31 14:12:00;;;;;;;;;;;;;;;;;;5045569;28;1953;-64
2022/08/31 14:14:38;;;;;;;;;;;;;;;;;;5051442;28;1397;-64
2022/08/31 14:17:04;;;;;;;;;;;;;;;;;;5036501;28;1223;-64
2022/08/31 14:19:30;;;;;;;;;;;;;;;;;;5046410;28;1605;-64
2022/08/31 14:22:12;;;;;;;;;;;;;;;;;;5048302;28;1322;-64
2022/08/31 14:24:37;;;;;;;;;;;;;;;;;;5044523;28;1369;-64
2022/08/31 14:27:02;;;;;;;;;;;;;;;;;;5044008;28;1471;-64
2022/08/31 14:29:28;;;;;;;;;;;;;;;;;;5029612;28;1325;-64
2022/08/31 14:31:56;;;;;;;;;;;;;;;;;;5049184;28;1894;-64
2022/08/31 14:34:25;;;;;;;;;;;;;;;;;;5049696;28;1342;-64
2022/08/31 14:37:01;;;;;;;;;;;;;;;;;;5048327;28;1428;-64
2022/08/31 14:39:31;;;;;;;;;;;;;;;;;;5047643;28;1299;-64
2022/08/31 14:42:04;;;;;;;;;;;;;;;;;;5052178;28;1219;-64
2022/08/31 14:44:31;;;;;;;;;;;;;;;;;;5045973;28;1390;-64
2022/08/31 14:46:57;;;;;;;;;;;;;;;;;;5051601;28;1373;-64
2022/08/31 14:49:22;;;;;;;;;;;;;;;;;;5050569;28;1562;-64
2022/08/31 14:51:47;;;;;;;;;;;;;;;;;;5038385;28;1894;-65
2022/08/31 14:54:15;;;;;;;;;;;;;;;;;;5048244;28;1280;-64
2022/08/31 14:56:45;;;;;;;;;;;;;;;;;;5047538;28;1443;-64
2022/08/31 14:59:12;;;;;;;;;;;;;;;;;;5048207;28;1396;-64
2022/08/31 15:01:40;;;;;;;;;;;;;;;;;;5048550;28;1266;-64
2022/08/31 15:04:07;;;;;;;;;;;;;;;;;;5053187;28;1298;-64
2022/08/31 15:06:32;;;;;;;;;;;;;;;;;;5045138;28;1370;-64
2022/08/31 15:08:58;;;;;;;;;;;;;;;;;;5050862;28;1231;-63
2022/08/31 15:11:24;;;;;;;;;;;;;;;;;;5049660;28;1915;-64
2022/08/31 15:13:50;;;;;;;;;;;;;;;;;;5049787;28;1502;-64
2022/08/31 15:16:15;;;;;;;;;;;;;;;;;;5047942;28;1337;-64
2022/08/31 15:18:41;;;;;;;;;;;;;;;;;;5053232;28;1231;-64
2022/08/31 15:21:07;;;;;;;;;;;;;;;;;;5052347;28;1478;-64
2022/08/31 15:23:33;;;;;;;;;;;;;;;;;;5043273;28;898;-64
2022/08/31 15:26:05;;;;;;;;;;;;;;;;;;5042095;28;1554;-63
2022/08/31 15:28:34;;;;;;;;;;;;;;;;;;5036189;28;1030;-64
2022/08/31 15:31:00;;;;;;;;;;;;;;;;;;5049134;28;1633;-64
2022/08/31 15:33:27;;;;;;;;;;;;;;;;;;5043730;28;1885;-64
2022/08/31 15:36:06;;;;;;;;;;;;;;;;;;5042760;28;1278;-64
2022/08/31 15:38:32;;;;;;;;;;;;;;;;;;5042352;28;1606;-63
2022/08/31 15:40:58;;;;;;;;;;;;;;;;;;5041249;28;1384;-64
2022/08/31 15:43:23;;;;;;;;;;;;;;;;;;5043374;28;1284;-64
2022/08/31 15:45:48;;;;;;;;;;;;;;;;;;5041464;28;1351;-64
2022/08/31 15:51:00;;;;;;;;;;;;;;;;;;5036633;28;1453;-64
2022/08/31 15:53:28;;;;;;;;;;;;;;;;;;5042232;28;1893;-64
2022/08/31 15:55:54;;;;;;;;;;;;;;;;;;5026349;28;1638;-64
2022/08/31 15:58:20;;;;;;;;;;;;;;;;;;5043281;28;1384;-64
2022/08/31 16:00:46;;;;;;;;;;;;;;;;;;5045708;28;1309;-64
2022/08/31 16:03:12;;;;;;;;;;;;;;;;;;5051783;28;1313;-64
2022/08/31 16:05:38;;;;;;;;;;;;;;;;;;5048209;28;1584;-63
2022/08/31 16:08:07;;;;;;;;;;;;;;;;;;5038496;28;1266;-63
2022/08/31 16:10:32;;;;;;;;;;;;;;;;;;5033747;28;1326;-63
2022/08/31 16:12:57;;;;;;;;;;;;;;;;;;5040813;28;1981;-64
2022/08/31 16:15:22;;;;;;;;;;;;;;;;;;5040754;28;1336;-64
2022/08/31 16:17:49;;;;;;;;;;;;;;;;;;5041929;28;1620;-64
2022/08/31 16:20:14;;;;;;;;;;;;;;;;;;5043216;28;1323;-64
2022/08/31 16:22:44;;;;;;;;;;;;;;;;;;5048858;28;1068;-64
2022/08/31 16:25:13;;;;;;;;;;;;;;;;;;5038808;28;1516;-64
2022/08/31 16:27:39;;;;;;;;;;;;;;;;;;5046292;28;1566;-64
2022/08/31 16:30:05;;;;;;;;;;;;;;;;;;5044508;28;1439;-64
2022/08/31 16:32:30;;;;;;;;;;;;;;;;;;5042330;28;1902;-64
2022/08/31 16:34:56;;;;;;;;;;;;;;;;;;5040873;28;1380;-64
2022/08/31 16:37:21;;;;;;;;;;;;;;;;;;5042547;28;1266;-64
2022/08/31 16:39:46;;;;;;;;;;;;;;;;;;5042139;28;1317;-64
2022/08/31 16:42:12;;;;;;;;;;;;;;;;;;5041581;28;1641;-64
2022/08/31 16:44:38;;;;;;;;;;;;;;;;;;5041638;28;1275;-64
2022/08/31 16:47:05;;;;;;;;;;;;;;;;;;5047570;28;1535;-64
2022/08/31 16:49:34;;;;;;;;;;;;;;;;;;5042355;28;1087;-64
2022/08/31 16:52:02;;;;;;;;;;;;;;;;;;5041806;28;1971;-64
2022/08/31 16:54:27;;;;;;;;;;;;;;;;;;5041528;28;1435;-64
2022/08/31 16:56:53;;;;;;;;;;;;;;;;;;5041140;28;1599;-64
2022/08/31 16:59:19;;;;;;;;;;;;;;;;;;5050024;28;1161;-63
2022/08/31 17:01:44;;;;;;;;;;;;;;;;;;5041228;28;1665;-63
2022/08/31 17:04:11;;;;;;;;;;;;;;;;;;5041930;28;1124;-63
2022/08/31 17:06:38;;;;;;;;;;;;;;;;;;5041349;28;1278;-63
2022/08/31 17:09:05;;;;;;;;;;;;;;;;;;5041861;28;1037;-64
2022/08/31 17:11:34;;;;;;;;;;;;;;;;;;5041045;28;1890;-64
2022/08/31 17:14:00;;;;;;;;;;;;;;;;;;5040714;28;1359;-64
2022/08/31 17:16:26;;;;;;;;;;;;;;;;;;5046829;28;1262;-64
2022/08/31 17:18:52;;;;;;;;;;;;;;;;;;5041767;28;1129;-64
2022/08/31 17:21:20;;;;;;;;;;;;;;;;;;5041704;28;1392;-63
2022/08/31 17:23:47;;;;;;;;;;;;;;;;;;5041946;28;790;-64
2022/08/31 17:26:13;;;;;;;;;;;;;;;;;;5040570;28;1587;-64
2022/08/31 17:28:40;;;;;;;;;;;;;;;;;;5047792;28;1151;-63
2022/08/31 17:31:05;;;;;;;;;;;;;;;;;;5046187;28;1625;-63
2022/08/31 17:33:31;;;;;;;;;;;;;;;;;;5040582;28;1893;-63